createdAt,value
2022-10-23T00:01:19.480Z,100745.13
2022-10-23T00:03:46.786Z,100734.66
2022-10-23T00:06:14.676Z,100741.69
2022-10-23T00:08:41.989Z,100736.31
2022-10-23T00:11:15.255Z,100731.44
2022-10-23T00:13:41.927Z,100718.22
2022-10-23T00:16:09.011Z,100718.50
2022-10-23T00:18:37.147Z,100718.78
2022-10-23T00:21:04.062Z,100716.34
2022-10-23T00:23:30.704Z,100705.03
2022-10-23T00:25:57.266Z,100698.00
2022-10-23T00:28:24.160Z,100701.50
2022-10-23T00:30:50.719Z,100696.94
2022-10-23T00:33:17.340Z,100701.28
2022-10-23T00:35:44.149Z,100694.50
2022-10-23T00:38:11.269Z,100704.50
2022-10-23T00:40:39.211Z,100706.13
2022-10-23T00:43:10.434Z,100702.34
2022-10-23T00:45:37.177Z,100699.63
2022-10-23T00:48:04.785Z,100687.78
2022-10-23T00:50:33.267Z,100694.78
2022-10-23T00:53:03.273Z,100698.56
2022-10-23T00:55:30.800Z,100694.78
2022-10-23T00:57:57.441Z,100692.59
2022-10-23T01:00:27.362Z,100679.38
2022-10-23T01:02:55.119Z,100677.00
2022-10-23T01:05:27.184Z,100672.38
2022-10-23T01:07:58.802Z,100682.91
2022-10-23T01:10:39.845Z,100673.44
2022-10-23T01:13:26.302Z,100680.75
2022-10-23T01:16:01.914Z,100681.56
2022-10-23T01:18:49.679Z,100675.94
2022-10-23T01:21:35.070Z,100671.06
2022-10-23T01:24:32.522Z,100675.41
2022-10-23T01:27:22.406Z,100677.63
2022-10-23T01:30:01.668Z,100670.06
2022-10-23T01:32:40.562Z,100666.84
2022-10-23T01:35:16.702Z,100676.03
2022-10-23T01:37:47.915Z,100676.03
2022-10-23T01:40:24.394Z,100673.06
2022-10-23T01:42:56.610Z,100674.34
2022-10-23T01:45:39.750Z,100676.25
2022-10-23T01:48:12.151Z,100666.03
2022-10-23T01:50:41.148Z,100663.09
2022-10-23T01:53:08.600Z,100657.75
2022-10-23T01:55:39.081Z,100654.00
2022-10-23T01:58:10.327Z,100637.28
2022-10-23T02:00:42.175Z,100624.91
2022-10-23T02:03:11.841Z,100637.03
2022-10-23T02:05:39.331Z,100635.69
2022-10-23T02:08:06.892Z,100635.69
2022-10-23T02:10:59.028Z,100639.44
2022-10-23T02:13:43.753Z,100641.13
2022-10-23T02:16:33.997Z,100637.41
2022-10-23T02:19:23.473Z,100627.72
2022-10-23T02:21:56.216Z,100639.81
2022-10-23T02:24:32.775Z,100633.06
2022-10-23T02:27:04.076Z,100629.81
2022-10-23T02:29:35.531Z,100625.50
2022-10-23T02:32:02.217Z,100634.38
2022-10-23T02:34:28.981Z,100626.00
2022-10-23T02:36:56.273Z,100629.25
2022-10-23T02:39:26.532Z,100635.47
2022-10-23T02:41:52.977Z,100627.69
2022-10-23T02:44:37.330Z,100630.41
2022-10-23T02:47:36.724Z,100618.56
2022-10-23T02:50:10.760Z,100609.66
2022-10-23T02:52:51.425Z,100611.56
2022-10-23T02:55:46.684Z,100621.25
2022-10-23T02:58:16.397Z,100619.09
2022-10-23T03:00:52.284Z,100605.63
2022-10-23T03:03:31.690Z,100607.50
2022-10-23T03:05:58.723Z,100606.44
2022-10-23T03:08:25.395Z,100600.53
2022-10-23T03:10:52.361Z,100589.78
2022-10-23T03:13:20.654Z,100592.50
2022-10-23T03:15:47.213Z,100598.13
2022-10-23T03:18:14.964Z,100595.66
2022-10-23T03:20:46.175Z,100586.28
2022-10-23T03:23:14.366Z,100593.78
2022-10-23T03:25:42.331Z,100591.13
2022-10-23T03:28:10.839Z,100591.66
2022-10-23T03:30:37.427Z,100590.88
2022-10-23T03:33:04.137Z,100590.59
2022-10-23T03:35:33.827Z,100588.16
2022-10-23T03:38:01.493Z,100588.72
2022-10-23T03:40:28.026Z,100589.50
2022-10-23T03:42:54.729Z,100588.44
2022-10-23T03:45:22.225Z,100591.66
2022-10-23T03:47:50.763Z,100594.66
2022-10-23T03:50:18.701Z,100591.69
2022-10-23T03:52:45.806Z,100596.56
2022-10-23T03:55:13.179Z,100600.31
2022-10-23T03:57:39.953Z,100598.44
2022-10-23T04:00:08.050Z,100604.91
2022-10-23T04:02:43.381Z,100604.09
2022-10-23T04:05:10.387Z,100614.88
2022-10-23T04:07:39.344Z,100618.09
2022-10-23T04:10:07.084Z,100612.72
2022-10-23T04:12:36.984Z,100612.72
2022-10-23T04:15:04.001Z,100595.22
2022-10-23T04:17:30.588Z,100596.56
2022-10-23T04:19:57.184Z,100597.38
2022-10-23T04:22:26.091Z,100606.28
2022-10-23T04:24:54.975Z,100603.06
2022-10-23T04:27:21.846Z,100589.34
2022-10-23T04:29:49.268Z,100574.53
2022-10-23T04:32:15.943Z,100585.31
2022-10-23T04:34:44.025Z,100587.19
2022-10-23T04:37:10.591Z,100583.69
2022-10-23T04:39:38.094Z,100582.09
2022-10-23T04:42:04.827Z,100583.41
2022-10-23T04:44:31.403Z,100576.69
2022-10-23T04:46:57.954Z,100574.00
2022-10-23T04:49:24.529Z,100575.91
2022-10-23T04:52:11.511Z,100574.53
2022-10-23T04:54:58.293Z,100581.56
2022-10-23T04:57:39.140Z,100577.78
2022-10-23T05:00:10.145Z,100587.19
2022-10-23T05:02:44.160Z,100595.53
2022-10-23T05:05:13.716Z,100606.03
2022-10-23T05:08:00.645Z,100601.47
2022-10-23T05:10:59.230Z,100604.16
2022-10-23T05:13:25.837Z,100599.84
2022-10-23T05:15:53.651Z,100599.31
2022-10-23T05:18:27.304Z,100592.84
2022-10-23T05:21:00.764Z,100577.75
2022-10-23T05:23:29.457Z,100585.81
2022-10-23T05:26:00.534Z,100567.25
2022-10-23T05:28:30.244Z,100565.63
2022-10-23T05:30:59.992Z,100563.25
2022-10-23T05:33:29.801Z,100560.03
2022-10-23T05:35:57.051Z,100569.72
2022-10-23T05:38:26.264Z,100572.94
2022-10-23T05:40:53.604Z,100562.72
2022-10-23T05:43:22.172Z,100553.56
2022-10-23T05:46:23.070Z,100552.19
2022-10-23T05:49:08.101Z,100559.22
2022-10-23T05:52:00.079Z,100558.94
2022-10-23T05:54:35.886Z,100553.03
2022-10-23T05:57:21.151Z,100545.75
2022-10-23T05:59:50.238Z,100540.63
2022-10-23T06:02:39.762Z,100532.03
2022-10-23T06:05:15.843Z,100528.56
2022-10-23T06:07:42.707Z,100532.31
2022-10-23T06:10:10.327Z,100529.09
2022-10-23T06:12:40.720Z,100521.53
2022-10-23T06:15:11.170Z,100524.53
2022-10-23T06:18:05.395Z,100521.03
2022-10-23T06:20:37.296Z,100523.72
2022-10-23T06:23:15.589Z,100535.28
2022-10-23T06:26:16.171Z,100522.59
2022-10-23T06:29:01.379Z,100521.81
2022-10-23T06:31:28.410Z,100528.00
2022-10-23T06:33:58.358Z,100523.41
2022-10-23T06:36:25.871Z,100520.72
2022-10-23T06:41:49.517Z,100515.88
2022-10-23T06:44:36.041Z,100530.13
2022-10-23T06:47:10.738Z,100535.78
2022-10-23T06:49:56.518Z,100526.66
2022-10-23T06:52:45.454Z,100527.72
2022-10-23T06:55:13.782Z,100526.63
2022-10-23T06:57:41.391Z,100536.31
2022-10-23T07:00:08.970Z,100524.72
2022-10-23T07:02:43.394Z,100529.31
2022-10-23T07:05:13.502Z,100526.06
2022-10-23T07:07:42.405Z,100533.03
2022-10-23T07:10:10.270Z,100533.03
2022-10-23T07:12:42.679Z,100537.84
2022-10-23T07:15:39.654Z,100542.13
2022-10-23T07:18:14.574Z,100544.19
2022-10-23T07:21:01.491Z,100535.53
2022-10-23T07:23:29.468Z,100528.56
2022-10-23T07:25:56.246Z,100529.63
2022-10-23T07:28:23.489Z,100535.22
2022-10-23T07:30:58.054Z,100538.13
2022-10-23T07:33:27.183Z,100539.13
2022-10-23T07:36:00.582Z,100538.03
2022-10-23T07:38:28.462Z,100541.00
2022-10-23T07:40:57.745Z,100542.88
2022-10-23T07:43:25.457Z,100566.03
2022-10-23T07:45:53.509Z,100551.47
2022-10-23T07:48:27.820Z,100544.34
2022-10-23T07:51:03.210Z,100538.59
2022-10-23T07:53:31.131Z,100529.56
2022-10-23T07:56:16.858Z,100545.13
2022-10-23T07:59:02.414Z,100537.94
2022-10-23T08:01:35.040Z,100537.16
2022-10-23T08:04:03.397Z,100523.75
2022-10-23T08:06:30.873Z,100521.06
2022-10-23T08:08:59.962Z,100517.13
2022-10-23T08:11:37.592Z,100513.25
2022-10-23T08:14:08.340Z,100511.66
2022-10-23T08:16:38.391Z,100518.47
2022-10-23T08:19:17.153Z,100513.06
2022-10-23T08:21:45.545Z,100505.81
2022-10-23T08:24:13.930Z,100498.97
2022-10-23T08:26:42.830Z,100498.44
2022-10-23T08:29:11.600Z,100490.78
2022-10-23T08:31:38.588Z,100503.97
2022-10-23T08:34:11.449Z,100488.56
2022-10-23T08:36:39.281Z,100490.22
2022-10-23T08:39:06.927Z,100499.19
2022-10-23T08:41:41.608Z,100501.41
2022-10-23T08:44:36.637Z,100495.91
2022-10-23T08:47:12.928Z,100478.03
2022-10-23T08:50:08.306Z,100485.91
2022-10-23T08:52:37.723Z,100485.66
2022-10-23T08:55:06.793Z,100478.31
2022-10-23T08:57:43.979Z,100464.47
2022-10-23T09:00:16.055Z,100475.72
2022-10-23T09:02:51.442Z,100469.28
2022-10-23T09:05:39.578Z,100467.81
2022-10-23T09:08:13.045Z,100471.97
2022-10-23T09:11:02.338Z,100464.34
2022-10-23T09:13:31.923Z,100473.69
2022-10-23T09:16:01.797Z,100472.31
2022-10-23T09:18:31.108Z,100472.97
2022-10-23T09:20:57.838Z,100471.00
2022-10-23T09:23:24.758Z,100474.75
2022-10-23T09:25:56.872Z,100477.41
2022-10-23T09:28:31.530Z,100457.53
2022-10-23T09:31:09.319Z,100448.94
2022-10-23T09:33:37.094Z,100441.75
2022-10-23T09:36:07.128Z,100456.66
2022-10-23T09:38:40.048Z,100452.81
2022-10-23T09:41:14.459Z,100450.25
2022-10-23T09:43:41.013Z,100452.63
2022-10-23T09:46:09.763Z,100458.88
2022-10-23T09:48:40.574Z,100448.78
2022-10-23T09:51:13.542Z,100460.34
2022-10-23T09:53:47.084Z,100443.38
2022-10-23T09:56:35.566Z,100437.41
2022-10-23T09:59:06.786Z,100437.94
2022-10-23T10:01:48.767Z,100431.84
2022-10-23T10:04:41.069Z,100431.03
2022-10-23T10:07:26.147Z,100423.50
2022-10-23T10:09:55.281Z,100431.00
2022-10-23T10:12:31.365Z,100420.84
2022-10-23T10:15:36.890Z,100415.00
2022-10-23T10:18:15.059Z,100426.78
2022-10-23T10:20:47.620Z,100414.34
2022-10-23T10:23:29.994Z,100419.28
2022-10-23T10:26:27.442Z,100423.31
2022-10-23T10:29:45.685Z,100425.25
2022-10-23T10:32:33.613Z,100425.88
2022-10-23T10:35:12.386Z,100428.78
2022-10-23T10:37:50.835Z,100425.19
2022-10-23T10:40:25.795Z,100414.94
2022-10-23T10:43:20.434Z,100406.84
2022-10-23T10:45:48.965Z,100399.34
2022-10-23T10:48:21.598Z,100393.78
2022-10-23T10:51:13.336Z,100397.28
2022-10-23T10:54:10.174Z,100382.69
2022-10-23T10:56:41.675Z,100375.44
2022-10-23T10:59:23.378Z,100361.56
2022-10-23T11:02:02.019Z,100373.47
2022-10-23T11:04:54.584Z,100375.31
2022-10-23T11:07:24.200Z,100378.94
2022-10-23T11:09:50.797Z,100385.06
2022-10-23T11:12:21.771Z,100389.25
2022-10-23T11:14:49.877Z,100396.56
2022-10-23T11:17:26.694Z,100382.44
2022-10-23T11:20:12.275Z,100378.88
2022-10-23T11:23:04.471Z,100364.06
2022-10-23T11:26:02.384Z,100349.47
2022-10-23T11:28:56.602Z,100342.66
2022-10-23T11:31:53.716Z,100343.72
2022-10-23T11:34:47.107Z,100341.94
2022-10-23T11:37:19.368Z,100336.59
2022-10-23T11:40:07.740Z,100322.06
2022-10-23T11:42:40.182Z,100325.03
2022-10-23T11:45:33.614Z,100328.78
2022-10-23T11:48:00.355Z,100328.72
2022-10-23T11:50:31.788Z,100333.69
2022-10-23T11:53:15.049Z,100314.53
2022-10-23T11:56:03.525Z,100318.66
2022-10-23T11:58:50.539Z,100308.59
2022-10-23T12:01:38.929Z,100308.31
2022-10-23T12:04:14.572Z,100298.78
2022-10-23T12:06:59.932Z,100284.19
2022-10-23T12:09:31.903Z,100278.38
2022-10-23T12:12:33.977Z,100262.78
2022-10-23T12:15:19.128Z,100267.28
2022-10-23T12:17:47.606Z,100261.31
2022-10-23T12:20:29.132Z,100265.19
2022-10-23T12:23:11.151Z,100269.97
2022-10-23T12:25:43.624Z,100259.16
2022-10-23T12:28:32.931Z,100250.41
2022-10-23T12:30:59.498Z,100246.56
2022-10-23T12:33:29.353Z,100235.44
2022-10-23T12:36:26.092Z,100233.69
2022-10-23T12:38:54.746Z,100235.16
2022-10-23T12:41:27.010Z,100229.28
2022-10-23T12:43:57.704Z,100213.59
2022-10-23T12:46:34.621Z,100211.06
2022-10-23T12:49:13.054Z,100213.88
2022-10-23T12:51:39.720Z,100211.75
2022-10-23T12:54:18.413Z,100213.66
2022-10-23T12:56:45.838Z,100212.75
2022-10-23T12:59:18.332Z,100209.47
2022-10-23T13:01:47.938Z,100203.00
2022-10-23T13:04:23.379Z,100206.69
2022-10-23T13:06:51.686Z,100212.28
2022-10-23T13:09:24.205Z,100207.63
2022-10-23T13:12:22.457Z,100201.47
2022-10-23T13:15:17.523Z,100183.69
2022-10-23T13:17:47.398Z,100180.28
2022-10-23T13:20:17.171Z,100183.41
2022-10-23T13:22:49.749Z,100169.63
2022-10-23T13:25:29.454Z,100172.13
2022-10-23T13:28:05.145Z,100171.78
2022-10-23T13:30:35.259Z,100161.53
2022-10-23T13:33:02.273Z,100166.88
2022-10-23T13:35:28.981Z,100160.16
2022-10-23T13:37:55.744Z,100157.19
2022-10-23T13:40:26.439Z,100152.88
2022-10-23T13:42:56.309Z,100153.47
2022-10-23T13:45:25.734Z,100153.13
2022-10-23T13:47:52.903Z,100147.00
2022-10-23T13:50:19.808Z,100136.84
2022-10-23T13:52:48.022Z,100131.84
2022-10-23T13:55:24.637Z,100132.53
2022-10-23T13:57:51.630Z,100130.84
2022-10-23T14:00:19.281Z,100114.03
2022-10-23T14:02:46.202Z,100113.59
2022-10-23T14:05:13.120Z,100117.88
2022-10-23T14:07:39.839Z,100113.13
2022-10-23T14:10:06.928Z,100114.03
2022-10-23T14:12:43.217Z,100111.31
2022-10-23T14:15:11.854Z,100106.88
2022-10-23T14:17:39.158Z,100109.50
2022-10-23T14:20:06.877Z,100109.81
2022-10-23T14:22:33.909Z,100111.31
2022-10-23T14:25:00.647Z,100113.13
2022-10-23T14:27:30.476Z,100103.13
2022-10-23T14:29:57.467Z,100106.84
2022-10-23T14:32:24.250Z,100099.69
2022-10-23T14:34:53.321Z,100097.63
2022-10-23T14:37:20.956Z,100091.16
2022-10-23T14:39:50.152Z,100100.34
2022-10-23T14:42:18.002Z,100093.09
2022-10-23T14:44:44.997Z,100099.66
2022-10-23T14:47:12.122Z,100102.38
2022-10-23T14:49:40.222Z,100091.63
2022-10-23T14:52:08.026Z,100094.22
2022-10-23T14:54:36.248Z,100095.94
2022-10-23T14:57:03.947Z,100096.06
2022-10-23T14:59:30.780Z,100090.03
2022-10-23T15:01:57.651Z,100088.09
2022-10-23T15:04:24.675Z,100080.16
2022-10-23T15:06:51.388Z,100075.47
2022-10-23T15:09:19.949Z,100073.75
2022-10-23T15:11:47.607Z,100076.00
2022-10-23T15:14:14.168Z,100079.16
2022-10-23T15:16:42.036Z,100084.81
2022-10-23T15:19:17.142Z,100083.69
2022-10-23T15:21:47.010Z,100079.38
2022-10-23T15:24:14.461Z,100073.25
2022-10-23T15:26:43.292Z,100067.78
2022-10-23T15:29:11.438Z,100060.75
2022-10-23T15:31:38.010Z,100058.03
2022-10-23T15:34:05.924Z,100061.44
2022-10-23T15:36:32.960Z,100042.13
2022-10-23T15:39:00.004Z,100042.97
2022-10-23T15:41:34.118Z,100038.88
2022-10-23T15:44:02.507Z,100036.94
2022-10-23T15:46:29.991Z,100028.16
2022-10-23T15:48:57.163Z,100038.00
2022-10-23T15:51:25.775Z,100033.78
2022-10-23T15:53:52.632Z,100027.94
2022-10-23T15:56:19.327Z,100012.81
2022-10-23T15:58:46.657Z,100016.38
2022-10-23T16:01:13.704Z,100013.56
2022-10-23T16:03:40.594Z,100013.63
2022-10-23T16:06:12.534Z,100021.19
2022-10-23T16:08:40.439Z,100021.06
2022-10-23T16:11:18.784Z,100012.44
2022-10-23T16:13:45.920Z,100012.75
2022-10-23T16:16:13.180Z,100003.19
2022-10-23T16:18:40.595Z,99989.66
2022-10-23T16:21:08.503Z,99997.06
2022-10-23T16:23:35.158Z,99986.84
2022-10-23T16:26:04.253Z,99979.69
2022-10-23T16:28:31.781Z,99970.41
2022-10-23T16:30:58.633Z,99980.63
2022-10-23T16:33:25.378Z,99974.53
2022-10-23T16:35:52.444Z,99979.97
2022-10-23T16:38:22.330Z,99977.91
2022-10-23T16:40:55.147Z,99977.44
2022-10-23T16:43:40.080Z,99975.84
2022-10-23T16:46:20.298Z,99973.78
2022-10-23T16:48:47.606Z,99967.88
2022-10-23T16:51:16.956Z,99964.22
2022-10-23T16:53:44.289Z,99967.94
2022-10-23T16:56:13.266Z,99971.28
2022-10-23T16:58:40.898Z,99965.06
2022-10-23T17:01:19.295Z,99979.28
2022-10-23T17:03:48.679Z,99988.38
2022-10-23T17:06:18.338Z,99996.16
2022-10-23T17:08:45.221Z,99997.31
2022-10-23T17:11:15.437Z,100003.38
2022-10-23T17:13:47.828Z,100008.66
2022-10-23T17:16:18.836Z,100005.16
2022-10-23T17:18:46.465Z,100021.63
2022-10-23T17:21:14.680Z,100029.78
2022-10-23T17:23:42.064Z,100040.31
2022-10-23T17:26:12.420Z,100058.69
2022-10-23T17:28:43.001Z,100063.00
2022-10-23T17:31:19.342Z,100079.00
2022-10-23T17:33:47.115Z,100104.41
2022-10-23T17:36:16.211Z,100114.78
2022-10-23T17:38:46.378Z,100132.41
2022-10-23T17:41:15.619Z,100152.72
2022-10-23T17:43:42.438Z,100194.41
2022-10-23T17:46:10.696Z,100222.84
2022-10-23T17:48:39.517Z,100270.47
2022-10-23T17:51:10.167Z,100236.13
2022-10-23T17:53:41.100Z,100231.00
2022-10-23T17:56:12.086Z,100224.25
2022-10-23T17:58:39.385Z,100214.50
2022-10-23T18:01:13.253Z,100222.50
2022-10-23T18:03:40.308Z,100221.69
2022-10-23T18:06:13.641Z,100213.25
2022-10-23T18:08:41.430Z,100214.81
2022-10-23T18:11:13.797Z,100209.41
2022-10-23T18:13:40.516Z,100186.06
2022-10-23T18:16:11.264Z,100165.97
2022-10-23T18:18:39.500Z,100151.06
2022-10-23T18:21:07.188Z,100139.09
2022-10-23T18:23:34.857Z,100116.25
2022-10-23T18:26:03.615Z,100114.75
2022-10-23T18:28:31.295Z,100122.06
2022-10-23T18:30:57.949Z,100120.47
2022-10-23T18:33:24.570Z,100145.53
2022-10-23T18:35:51.170Z,100148.13
2022-10-23T18:38:17.784Z,100156.28
2022-10-23T18:40:44.818Z,100160.28
2022-10-23T18:43:14.887Z,100170.19
2022-10-23T18:45:42.914Z,100179.41
2022-10-23T18:48:09.506Z,100179.41
2022-10-23T18:50:37.540Z,100176.22
2022-10-23T18:53:04.276Z,100180.84
2022-10-23T18:58:00.421Z,100179.97
2022-10-23T19:00:27.084Z,100168.31
2022-10-23T19:02:53.796Z,100173.88
2022-10-23T19:05:20.589Z,100157.22
2022-10-23T19:07:48.817Z,100157.19
2022-10-23T19:10:17.926Z,100160.34
2022-10-23T19:12:44.933Z,100158.53
2022-10-23T19:15:12.039Z,100159.78
2022-10-23T19:17:38.747Z,100159.88
2022-10-23T19:20:10.996Z,100154.13
2022-10-23T19:22:41.012Z,100155.09
2022-10-23T19:25:15.704Z,100140.44
2022-10-23T19:27:44.786Z,100147.31
2022-10-23T19:30:16.291Z,100141.69
2022-10-23T19:32:46.582Z,100147.00
2022-10-23T19:35:15.600Z,100151.41
2022-10-23T19:37:43.458Z,100138.00
2022-10-23T19:40:11.289Z,100143.03
2022-10-23T19:42:40.064Z,100138.59
2022-10-23T19:45:09.132Z,100146.59
2022-10-23T19:47:36.538Z,100146.38
2022-10-23T19:50:05.184Z,100144.66
2022-10-23T19:52:31.967Z,100149.94
2022-10-23T19:54:58.573Z,100139.59
2022-10-23T19:57:25.232Z,100146.50
2022-10-23T19:59:52.424Z,100147.63
2022-10-23T20:02:20.752Z,100151.41
2022-10-23T20:04:47.576Z,100152.03
2022-10-23T20:07:14.192Z,100144.41
2022-10-23T20:09:41.151Z,100142.81
2022-10-23T20:12:08.108Z,100130.31
2022-10-23T20:14:34.719Z,100128.81
2022-10-23T20:17:02.536Z,100132.94
2022-10-23T20:19:30.400Z,100131.38
2022-10-23T20:21:57.225Z,100138.25
2022-10-23T20:24:23.820Z,100151.47
2022-10-23T20:26:53.481Z,100151.47
2022-10-23T20:29:20.509Z,100161.50
2022-10-23T20:31:48.070Z,100149.09
2022-10-23T20:34:14.740Z,100151.34
2022-10-23T20:36:46.841Z,100141.47
2022-10-23T20:39:21.064Z,100143.66
2022-10-23T20:41:47.942Z,100148.47
2022-10-23T20:46:49.199Z,100161.22
2022-10-23T20:49:16.840Z,100157.13
2022-10-23T20:51:43.494Z,100173.47
2022-10-23T20:54:10.170Z,100169.78
2022-10-23T20:56:38.239Z,100178.28
2022-10-23T20:59:07.402Z,100176.97
2022-10-23T21:01:34.651Z,100182.78
2022-10-23T21:04:02.719Z,100186.16
2022-10-23T21:06:45.687Z,100196.19
2022-10-23T21:09:19.055Z,100197.97
2022-10-23T21:11:45.896Z,100201.50
2022-10-23T21:14:12.923Z,100205.69
2022-10-23T21:16:44.224Z,100203.59
2022-10-23T21:19:13.606Z,100206.19
2022-10-23T21:21:40.229Z,100196.94
2022-10-23T21:24:09.710Z,100203.16
2022-10-23T21:26:36.930Z,100207.78
2022-10-23T21:29:17.967Z,100210.97
2022-10-23T21:31:45.879Z,100213.97
2022-10-23T21:34:12.554Z,100207.69
2022-10-23T21:36:53.856Z,100211.66
2022-10-23T21:39:28.739Z,100216.47
2022-10-23T21:41:55.285Z,100216.47
2022-10-23T21:44:21.906Z,100209.63
2022-10-23T21:46:48.545Z,100205.19
2022-10-23T21:49:15.128Z,100201.41
2022-10-23T21:51:41.788Z,100212.97
2022-10-23T21:54:12.447Z,100207.53
2022-10-23T21:56:40.515Z,100212.97
2022-10-23T21:59:12.720Z,100207.03
2022-10-23T22:01:41.243Z,100213.03
2022-10-23T22:04:07.971Z,100196.47
2022-10-23T22:06:34.611Z,100204.47
2022-10-23T22:09:01.626Z,100207.50
2022-10-23T22:11:28.375Z,100201.88
2022-10-23T22:13:55.803Z,100212.72
2022-10-23T22:16:22.760Z,100207.59
2022-10-23T22:18:49.730Z,100205.09
2022-10-23T22:21:19.933Z,100201.88
2022-10-23T22:23:49.283Z,100191.91
2022-10-23T22:26:35.487Z,100196.22
2022-10-23T22:29:05.881Z,100198.13
2022-10-23T22:31:34.363Z,100201.13
2022-10-23T22:34:13.111Z,100210.38
2022-10-23T22:36:48.989Z,100195.38
2022-10-23T22:39:15.895Z,100207.41
2022-10-23T22:41:43.657Z,100211.00
2022-10-23T22:44:11.881Z,100214.16
2022-10-23T22:46:38.470Z,100206.41
2022-10-23T22:51:32.894Z,100207.50
2022-10-23T22:54:00.406Z,100209.63
2022-10-23T22:56:30.293Z,100219.22
2022-10-23T22:58:57.679Z,100221.44
2022-10-23T23:01:31.639Z,100223.81
2022-10-23T23:04:08.668Z,100219.59
2022-10-23T23:06:45.783Z,100222.56
2022-10-23T23:09:17.043Z,100215.50
2022-10-23T23:11:51.240Z,100210.44
2022-10-23T23:14:22.097Z,100204.50
2022-10-23T23:16:51.509Z,100211.00
2022-10-23T23:19:18.085Z,100217.75
2022-10-23T23:21:44.837Z,100217.75
2022-10-23T23:24:11.944Z,100209.75
2022-10-23T23:26:38.802Z,100213.19
2022-10-23T23:29:05.521Z,100217.13
2022-10-23T23:31:32.047Z,100219.34
2022-10-23T23:33:58.583Z,100221.44
2022-10-23T23:36:27.209Z,100218.59
2022-10-23T23:38:55.920Z,100221.81
2022-10-23T23:41:23.208Z,100221.22
2022-10-23T23:43:50.029Z,100216.41
2022-10-23T23:46:17.754Z,100217.03
2022-10-23T23:48:47.959Z,100216.19
2022-10-23T23:51:15.897Z,100217.13
2022-10-23T23:53:42.619Z,100224.75
2022-10-23T23:56:09.562Z,100222.03
2022-10-23T23:58:36.447Z,100219.13
